sensor_id;sensor_type;location;lat;lon;timestamp;pressure;altitude;pressure_sealevel;temperature;humidity
43155;BME280;34212;51.018;13.586;2024-02-04T00:03:24;98162.94;;;8.85;96.38
43155;BME280;34212;51.018;13.586;2024-02-04T00:08:26;98163.28;;;8.82;96.65
43155;BME280;34212;51.018;13.586;2024-02-04T00:13:28;98139.69;;;8.78;96.78
43155;BME280;34212;51.018;13.586;2024-02-04T00:18:29;98142.66;;;8.75;97.03
43155;BME280;34212;51.018;13.586;2024-02-04T00:23:31;98129.50;;;8.74;97.49
43155;BME280;34212;51.018;13.586;2024-02-04T00:28:32;98134.81;;;8.74;97.02
43155;BME280;34212;51.018;13.586;2024-02-04T00:33:34;98154.75;;;8.70;96.99
43155;BME280;34212;51.018;13.586;2024-02-04T00:38:36;98156.22;;;8.64;96.63
43155;BME280;34212;51.018;13.586;2024-02-04T00:43:37;98163.19;;;8.65;97.48
43155;BME280;34212;51.018;13.586;2024-02-04T00:48:39;98166.69;;;8.66;97.82
43155;BME280;34212;51.018;13.586;2024-02-04T00:53:44;98174.66;;;8.66;97.03
43155;BME280;34212;51.018;13.586;2024-02-04T00:58:45;98169.84;;;8.61;96.49
43155;BME280;34212;51.018;13.586;2024-02-04T01:03:47;98142.88;;;8.56;96.79
43155;BME280;34212;51.018;13.586;2024-02-04T01:08:49;98158.94;;;8.46;96.53
43155;BME280;34212;51.018;13.586;2024-02-04T01:13:50;98157.09;;;8.39;96.58
43155;BME280;34212;51.018;13.586;2024-02-04T01:18:52;98150.03;;;8.29;96.54
43155;BME280;34212;51.018;13.586;2024-02-04T01:23:54;98153.66;;;8.28;97.12
43155;BME280;34212;51.018;13.586;2024-02-04T01:28:56;98150.66;;;8.23;97.24
43155;BME280;34212;51.018;13.586;2024-02-04T01:33:57;98170.22;;;8.22;96.71
43155;BME280;34212;51.018;13.586;2024-02-04T01:38:59;98151.59;;;8.14;96.50
43155;BME280;34212;51.018;13.586;2024-02-04T01:44:00;98142.34;;;8.00;96.23
43155;BME280;34212;51.018;13.586;2024-02-04T01:49:02;98135.78;;;7.86;95.76
43155;BME280;34212;51.018;13.586;2024-02-04T01:54:04;98153.13;;;7.73;95.88
43155;BME280;34212;51.018;13.586;2024-02-04T01:59:07;98144.91;;;7.66;96.46
43155;BME280;34212;51.018;13.586;2024-02-04T02:04:08;98148.63;;;7.73;96.89
43155;BME280;34212;51.018;13.586;2024-02-04T02:09:10;98138.75;;;7.83;96.67
43155;BME280;34212;51.018;13.586;2024-02-04T02:14:19;98122.59;;;7.95;97.37
43155;BME280;34212;51.018;13.586;2024-02-04T02:19:40;98111.53;;;8.07;97.67
43155;BME280;34212;51.018;13.586;2024-02-04T02:24:46;98092.16;;;8.15;97.12
43155;BME280;34212;51.018;13.586;2024-02-04T02:29:48;98098.81;;;8.19;96.88
43155;BME280;34212;51.018;13.586;2024-02-04T02:34:49;98093.03;;;8.24;97.20
43155;BME280;34212;51.018;13.586;2024-02-04T02:40:01;98093.75;;;8.34;96.69
43155;BME280;34212;51.018;13.586;2024-02-04T02:45:07;98105.59;;;8.40;97.75
43155;BME280;34212;51.018;13.586;2024-02-04T02:50:09;98103.31;;;8.45;97.07
43155;BME280;34212;51.018;13.586;2024-02-04T02:55:11;98098.00;;;8.45;96.28
43155;BME280;34212;51.018;13.586;2024-02-04T03:00:13;98106.63;;;8.47;96.80
43155;BME280;34212;51.018;13.586;2024-02-04T03:05:15;98112.47;;;8.50;96.75
43155;BME280;34212;51.018;13.586;2024-02-04T03:10:17;98105.34;;;8.51;97.25
43155;BME280;34212;51.018;13.586;2024-02-04T03:15:18;98109.97;;;8.49;97.23
43155;BME280;34212;51.018;13.586;2024-02-04T03:20:20;98105.13;;;8.44;97.21
43155;BME280;34212;51.018;13.586;2024-02-04T03:25:22;98114.03;;;8.35;96.88
43155;BME280;34212;51.018;13.586;2024-02-04T03:30:27;98106.31;;;8.24;96.58
43155;BME280;34212;51.018;13.586;2024-02-04T03:35:29;98116.38;;;8.12;97.50
43155;BME280;34212;51.018;13.586;2024-02-04T03:40:31;98118.00;;;8.05;97.86
43155;BME280;34212;51.018;13.586;2024-02-04T03:45:32;98109.34;;;8.03;97.70
43155;BME280;34212;51.018;13.586;2024-02-04T03:50:35;98104.34;;;8.00;96.80
43155;BME280;34212;51.018;13.586;2024-02-04T03:55:37;98103.00;;;7.96;97.05
43155;BME280;34212;51.018;13.586;2024-02-04T04:00:39;98118.25;;;7.94;97.00
43155;BME280;34212;51.018;13.586;2024-02-04T04:05:41;98118.75;;;7.97;97.38
43155;BME280;34212;51.018;13.586;2024-02-04T04:10:43;98089.22;;;8.00;97.10
43155;BME280;34212;51.018;13.586;2024-02-04T04:15:44;98086.75;;;7.99;97.40
43155;BME280;34212;51.018;13.586;2024-02-04T04:20:46;98097.06;;;8.02;97.54
43155;BME280;34212;51.018;13.586;2024-02-04T04:25:47;98079.88;;;8.14;97.88
43155;BME280;34212;51.018;13.586;2024-02-04T04:30:49;98078.91;;;8.23;97.80
43155;BME280;34212;51.018;13.586;2024-02-04T04:35:51;98072.28;;;8.27;97.95
43155;BME280;34212;51.018;13.586;2024-02-04T04:40:52;98076.59;;;8.28;97.39
43155;BME280;34212;51.018;13.586;2024-02-04T04:45:54;98075.94;;;8.26;96.42
43155;BME280;34212;51.018;13.586;2024-02-04T04:50:56;98069.50;;;8.29;96.98
43155;BME280;34212;51.018;13.586;2024-02-04T04:55:57;98066.19;;;8.35;97.21
43155;BME280;34212;51.018;13.586;2024-02-04T05:00:59;98054.97;;;8.41;97.21
43155;BME280;34212;51.018;13.586;2024-02-04T05:06:01;98067.25;;;8.42;97.30
43155;BME280;34212;51.018;13.586;2024-02-04T05:11:02;98074.06;;;8.45;97.42
43155;BME280;34212;51.018;13.586;2024-02-04T05:16:04;98067.44;;;8.49;97.19
43155;BME280;34212;51.018;13.586;2024-02-04T05:21:06;98059.63;;;8.47;98.04
43155;BME280;34212;51.018;13.586;2024-02-04T05:26:07;98044.34;;;8.49;98.29
43155;BME280;34212;51.018;13.586;2024-02-04T05:31:09;98046.16;;;8.49;97.55
43155;BME280;34212;51.018;13.586;2024-02-04T05:36:10;98048.00;;;8.48;97.37
43155;BME280;34212;51.018;13.586;2024-02-04T05:41:12;98044.34;;;8.49;98.07
43155;BME280;34212;51.018;13.586;2024-02-04T05:46:13;98032.19;;;8.47;97.21
43155;BME280;34212;51.018;13.586;2024-02-04T05:51:16;98020.22;;;8.43;98.47
43155;BME280;34212;51.018;13.586;2024-02-04T05:56:17;98012.63;;;8.48;97.96
43155;BME280;34212;51.018;13.586;2024-02-04T06:01:19;98019.28;;;8.52;97.77
43155;BME280;34212;51.018;13.586;2024-02-04T06:06:21;98024.59;;;8.52;97.55
43155;BME280;34212;51.018;13.586;2024-02-04T06:11:22;98026.41;;;8.51;97.72
43155;BME280;34212;51.018;13.586;2024-02-04T06:16:24;98030.22;;;8.49;97.92
43155;BME280;34212;51.018;13.586;2024-02-04T06:21:25;98013.59;;;8.47;97.86
43155;BME280;34212;51.018;13.586;2024-02-04T06:26:27;97999.16;;;8.49;98.06
43155;BME280;34212;51.018;13.586;2024-02-04T06:31:29;97986.53;;;8.51;98.05
43155;BME280;34212;51.018;13.586;2024-02-04T06:36:30;97967.75;;;8.53;98.25
43155;BME280;34212;51.018;13.586;2024-02-04T06:41:32;97969.44;;;8.54;97.53
43155;BME280;34212;51.018;13.586;2024-02-04T06:46:35;97968.75;;;8.52;97.59
43155;BME280;34212;51.018;13.586;2024-02-04T06:51:37;97965.44;;;8.42;97.38
43155;BME280;34212;51.018;13.586;2024-02-04T06:56:39;97967.09;;;8.43;97.73
43155;BME280;34212;51.018;13.586;2024-02-04T07:01:40;97968.94;;;8.50;97.97
43155;BME280;34212;51.018;13.586;2024-02-04T07:06:42;97960.28;;;8.56;97.82
43155;BME280;34212;51.018;13.586;2024-02-04T07:11:44;97960.50;;;8.63;97.71
43155;BME280;34212;51.018;13.586;2024-02-04T07:16:48;97952.84;;;8.68;98.59
43155;BME280;34212;51.018;13.586;2024-02-04T07:21:49;97967.50;;;8.72;98.45
43155;BME280;34212;51.018;13.586;2024-02-04T07:26:51;97961.50;;;8.78;97.95
43155;BME280;34212;51.018;13.586;2024-02-04T07:31:52;97967.47;;;8.81;98.44
43155;BME280;34212;51.018;13.586;2024-02-04T07:36:54;97964.50;;;8.84;97.91
43155;BME280;34212;51.018;13.586;2024-02-04T07:41:56;97956.84;;;8.89;98.49
43155;BME280;34212;51.018;13.586;2024-02-04T07:47:01;97960.00;;;8.92;98.26
43155;BME280;34212;51.018;13.586;2024-02-04T07:52:02;97961.50;;;8.95;98.00
43155;BME280;34212;51.018;13.586;2024-02-04T07:57:04;97952.88;;;9.01;98.75
43155;BME280;34212;51.018;13.586;2024-02-04T08:02:06;97947.38;;;9.02;98.43
43155;BME280;34212;51.018;13.586;2024-02-04T08:07:08;97941.91;;;9.04;98.34
43155;BME280;34212;51.018;13.586;2024-02-04T08:12:10;97963.00;;;9.06;98.14
43155;BME280;34212;51.018;13.586;2024-02-04T08:17:11;97963.16;;;9.12;98.85
43155;BME280;34212;51.018;13.586;2024-02-04T08:22:13;97959.00;;;9.18;98.45
43155;BME280;34212;51.018;13.586;2024-02-04T08:27:16;97939.72;;;9.24;98.32
43155;BME280;34212;51.018;13.586;2024-02-04T08:32:19;97945.53;;;9.28;98.84
43155;BME280;34212;51.018;13.586;2024-02-04T08:37:20;97954.19;;;9.30;98.36
43155;BME280;34212;51.018;13.586;2024-02-04T08:42:22;97960.00;;;9.33;98.05
43155;BME280;34212;51.018;13.586;2024-02-04T08:47:23;97951.84;;;9.35;98.30
43155;BME280;34212;51.018;13.586;2024-02-04T08:52:25;97952.84;;;9.42;98.78
43155;BME280;34212;51.018;13.586;2024-02-04T08:57:27;97950.84;;;9.44;99.06
43155;BME280;34212;51.018;13.586;2024-02-04T09:02:28;97955.66;;;9.40;98.68
43155;BME280;34212;51.018;13.586;2024-02-04T09:07:30;97963.16;;;9.37;98.48
43155;BME280;34212;51.018;13.586;2024-02-04T09:12:34;97948.69;;;9.31;98.59
43155;BME280;34212;51.018;13.586;2024-02-04T09:17:36;97979.47;;;9.25;98.33
43155;BME280;34212;51.018;13.586;2024-02-04T09:22:38;97970.81;;;9.23;98.91
43155;BME280;34212;51.018;13.586;2024-02-04T09:27:40;97983.13;;;9.24;99.56
43155;BME280;34212;51.018;13.586;2024-02-04T09:32:42;97973.28;;;9.25;99.20
43155;BME280;34212;51.018;13.586;2024-02-04T09:37:44;97964.66;;;9.23;99.89
43155;BME280;34212;51.018;13.586;2024-02-04T09:42:46;97975.97;;;9.25;99.13
43155;BME280;34212;51.018;13.586;2024-02-04T09:47:49;97972.31;;;9.26;98.99
43155;BME280;34212;51.018;13.586;2024-02-04T09:52:58;97960.34;;;9.30;99.28
43155;BME280;34212;51.018;13.586;2024-02-04T09:58:01;97960.47;;;9.37;100.00
43155;BME280;34212;51.018;13.586;2024-02-04T10:03:04;97956.50;;;9.41;98.78
43155;BME280;34212;51.018;13.586;2024-02-04T10:08:05;97947.50;;;9.42;99.16
43155;BME280;34212;51.018;13.586;2024-02-04T10:13:08;97931.19;;;9.45;98.94
43155;BME280;34212;51.018;13.586;2024-02-04T10:18:10;97921.22;;;9.39;98.63
43155;BME280;34212;51.018;13.586;2024-02-04T10:23:12;97921.38;;;9.37;98.99
43155;BME280;34212;51.018;13.586;2024-02-04T10:28:13;97912.25;;;9.40;99.26
43155;BME280;34212;51.018;13.586;2024-02-04T10:33:16;97892.63;;;9.41;99.28
43155;BME280;34212;51.018;13.586;2024-02-04T10:38:18;97868.47;;;9.42;98.54
43155;BME280;34212;51.018;13.586;2024-02-04T10:43:23;97858.50;;;9.44;98.67
43155;BME280;34212;51.018;13.586;2024-02-04T10:48:26;97860.34;;;9.44;98.55
43155;BME280;34212;51.018;13.586;2024-02-04T10:53:30;97849.69;;;9.44;98.92
43155;BME280;34212;51.018;13.586;2024-02-04T10:58:33;97861.16;;;9.44;98.53
43155;BME280;34212;51.018;13.586;2024-02-04T11:03:36;97862.00;;;9.45;98.70
43155;BME280;34212;51.018;13.586;2024-02-04T11:08:40;97843.66;;;9.50;99.70
43155;BME280;34212;51.018;13.586;2024-02-04T11:13:44;97823.34;;;9.57;99.49
43155;BME280;34212;51.018;13.586;2024-02-04T11:29:18;97796.72;;;9.57;98.93
43155;BME280;34212;51.018;13.586;2024-02-04T11:34:19;97797.19;;;9.61;99.43
43155;BME280;34212;51.018;13.586;2024-02-04T11:39:22;97799.69;;;9.62;99.19
43155;BME280;34212;51.018;13.586;2024-02-04T11:44:25;97799.03;;;9.60;98.54
43155;BME280;34212;51.018;13.586;2024-02-04T11:49:27;97807.19;;;9.59;98.95
43155;BME280;34212;51.018;13.586;2024-02-04T11:54:30;97801.84;;;9.59;98.83
43155;BME280;34212;51.018;13.586;2024-02-04T11:59:32;97784.25;;;9.58;98.77
43155;BME280;34212;51.018;13.586;2024-02-04T12:04:34;97796.06;;;9.55;98.35
43155;BME280;34212;51.018;13.586;2024-02-04T12:09:36;97781.09;;;9.54;99.03
43155;BME280;34212;51.018;13.586;2024-02-04T12:14:39;97763.44;;;9.53;98.49
43155;BME280;34212;51.018;13.586;2024-02-04T12:19:41;97767.31;;;9.51;98.22
43155;BME280;34212;51.018;13.586;2024-02-04T12:24:45;97765.47;;;9.51;99.12
43155;BME280;34212;51.018;13.586;2024-02-04T12:29:51;97748.19;;;9.47;98.62
43155;BME280;34212;51.018;13.586;2024-02-04T12:34:53;97745.66;;;9.54;98.85
43155;BME280;34212;51.018;13.586;2024-02-04T12:39:57;97759.09;;;9.60;99.35
43155;BME280;34212;51.018;13.586;2024-02-04T12:45:00;97769.75;;;9.60;97.93
43155;BME280;34212;51.018;13.586;2024-02-04T12:50:02;97767.91;;;9.61;98.56
43155;BME280;34212;51.018;13.586;2024-02-04T12:55:04;97782.06;;;9.61;98.10
43155;BME280;34212;51.018;13.586;2024-02-04T13:00:06;97754.06;;;9.65;98.58
43155;BME280;34212;51.018;13.586;2024-02-04T13:05:10;97741.38;;;9.76;98.24
43155;BME280;34212;51.018;13.586;2024-02-04T13:10:25;97741.50;;;9.82;98.08
43155;BME280;34212;51.018;13.586;2024-02-04T13:15:31;97748.59;;;9.90;98.28
43155;BME280;34212;51.018;13.586;2024-02-04T13:20:33;97736.88;;;9.99;98.14
43155;BME280;34212;51.018;13.586;2024-02-04T13:25:35;97755.34;;;10.01;98.00
43155;BME280;34212;51.018;13.586;2024-02-04T13:30:36;97764.84;;;10.03;96.91
43155;BME280;34212;51.018;13.586;2024-02-04T13:35:38;97776.91;;;9.91;97.16
43155;BME280;34212;51.018;13.586;2024-02-04T13:40:40;97785.50;;;9.70;97.00
43155;BME280;34212;51.018;13.586;2024-02-04T13:45:42;97770.94;;;9.58;98.64
43155;BME280;34212;51.018;13.586;2024-02-04T13:50:43;97773.41;;;9.59;99.23
43155;BME280;34212;51.018;13.586;2024-02-04T13:55:46;97778.72;;;9.59;98.84
43155;BME280;34212;51.018;13.586;2024-02-04T14:00:48;97789.72;;;9.56;98.32
43155;BME280;34212;51.018;13.586;2024-02-04T14:05:50;97803.22;;;9.55;98.13
43155;BME280;34212;51.018;13.586;2024-02-04T14:10:52;97803.09;;;9.48;98.63
43155;BME280;34212;51.018;13.586;2024-02-04T14:15:53;97830.41;;;9.42;97.12
43155;BME280;34212;51.018;13.586;2024-02-04T14:20:55;97830.47;;;9.17;96.86
43155;BME280;34212;51.018;13.586;2024-02-04T14:25:56;97826.19;;;8.92;97.24
43155;BME280;34212;51.018;13.586;2024-02-04T14:30:58;97845.34;;;8.79;98.06
43155;BME280;34212;51.018;13.586;2024-02-04T14:36:00;97824.56;;;8.74;98.21
43155;BME280;34212;51.018;13.586;2024-02-04T14:41:01;97804.63;;;8.70;98.24
43155;BME280;34212;51.018;13.586;2024-02-04T14:46:05;97797.47;;;8.63;97.88
43155;BME280;34212;51.018;13.586;2024-02-04T14:51:06;97800.31;;;8.61;97.45
43155;BME280;34212;51.018;13.586;2024-02-04T14:56:08;97796.97;;;8.59;97.35
43155;BME280;34212;51.018;13.586;2024-02-04T15:01:10;97836.34;;;8.55;97.17
43155;BME280;34212;51.018;13.586;2024-02-04T15:06:11;97811.25;;;8.50;97.18
43155;BME280;34212;51.018;13.586;2024-02-04T15:11:13;97853.63;;;8.43;97.43
43155;BME280;34212;51.018;13.586;2024-02-04T15:16:14;97837.47;;;8.37;97.61
43155;BME280;34212;51.018;13.586;2024-02-04T15:21:16;97831.81;;;8.31;97.46
43155;BME280;34212;51.018;13.586;2024-02-04T15:26:18;97823.53;;;8.26;98.39
43155;BME280;34212;51.018;13.586;2024-02-04T15:31:22;97832.81;;;8.22;98.53
43155;BME280;34212;51.018;13.586;2024-02-04T15:36:25;97852.72;;;8.18;97.73
43155;BME280;34212;51.018;13.586;2024-02-04T15:41:27;97842.63;;;8.14;98.67
43155;BME280;34212;51.018;13.586;2024-02-04T15:46:29;97832.97;;;8.13;98.54
43155;BME280;34212;51.018;13.586;2024-02-04T15:51:32;97821.84;;;8.09;98.52
43155;BME280;34212;51.018;13.586;2024-02-04T15:56:34;97832.66;;;8.07;98.84
43155;BME280;34212;51.018;13.586;2024-02-04T16:01:39;97824.19;;;8.04;98.80
43155;BME280;34212;51.018;13.586;2024-02-04T16:06:42;97822.50;;;8.03;98.93
43155;BME280;34212;51.018;13.586;2024-02-04T16:16:59;97828.63;;;8.03;98.39
43155;BME280;34212;51.018;13.586;2024-02-04T16:22:04;97834.81;;;8.04;98.57
43155;BME280;34212;51.018;13.586;2024-02-04T16:27:06;97808.75;;;8.07;99.09
43155;BME280;34212;51.018;13.586;2024-02-04T16:32:08;97805.25;;;8.07;98.38
43155;BME280;34212;51.018;13.586;2024-02-04T16:37:10;97814.53;;;8.11;98.76
43155;BME280;34212;51.018;13.586;2024-02-04T16:42:11;97809.72;;;8.15;98.45
43155;BME280;34212;51.018;13.586;2024-02-04T16:47:13;97808.59;;;8.17;98.80
43155;BME280;34212;51.018;13.586;2024-02-04T16:52:15;97800.44;;;8.19;99.09
43155;BME280;34212;51.018;13.586;2024-02-04T16:57:17;97813.25;;;8.23;98.85
43155;BME280;34212;51.018;13.586;2024-02-04T17:02:18;97816.53;;;8.25;98.39
43155;BME280;34212;51.018;13.586;2024-02-04T17:07:23;97808.56;;;8.25;98.56
43155;BME280;34212;51.018;13.586;2024-02-04T17:12:26;97810.91;;;8.28;99.01
43155;BME280;34212;51.018;13.586;2024-02-04T17:17:29;97792.47;;;8.27;98.40
43155;BME280;34212;51.018;13.586;2024-02-04T17:22:33;97776.34;;;8.28;98.62
43155;BME280;34212;51.018;13.586;2024-02-04T17:27:37;97775.72;;;8.26;98.45
43155;BME280;34212;51.018;13.586;2024-02-04T17:32:40;97786.50;;;8.25;98.99
43155;BME280;34212;51.018;13.586;2024-02-04T17:37:42;97803.44;;;8.24;99.15
43155;BME280;34212;51.018;13.586;2024-02-04T17:42:45;97787.00;;;8.20;98.72
43155;BME280;34212;51.018;13.586;2024-02-04T17:47:47;97782.84;;;8.18;98.61
43155;BME280;34212;51.018;13.586;2024-02-04T17:52:50;97768.88;;;8.16;99.56
43155;BME280;34212;51.018;13.586;2024-02-04T17:57:51;97771.38;;;8.17;99.66
43155;BME280;34212;51.018;13.586;2024-02-04T18:02:53;97788.34;;;8.16;99.22
43155;BME280;34212;51.018;13.586;2024-02-04T18:07:55;97764.09;;;8.11;99.61
43155;BME280;34212;51.018;13.586;2024-02-04T18:12:56;97789.81;;;8.10;99.79
43155;BME280;34212;51.018;13.586;2024-02-04T18:17:58;97762.44;;;8.10;99.83
43155;BME280;34212;51.018;13.586;2024-02-04T18:23:00;97761.75;;;8.08;99.49
43155;BME280;34212;51.018;13.586;2024-02-04T18:28:01;97765.41;;;8.07;99.08
43155;BME280;34212;51.018;13.586;2024-02-04T18:33:05;97758.75;;;8.03;99.49
43155;BME280;34212;51.018;13.586;2024-02-04T18:38:08;97766.41;;;7.98;99.09
43155;BME280;34212;51.018;13.586;2024-02-04T18:43:09;97764.22;;;7.93;99.40
43155;BME280;34212;51.018;13.586;2024-02-04T18:48:11;97750.78;;;7.95;99.42
43155;BME280;34212;51.018;13.586;2024-02-04T18:53:13;97768.38;;;7.96;99.46
43155;BME280;34212;51.018;13.586;2024-02-04T18:58:14;97745.16;;;7.98;100.00
43155;BME280;34212;51.018;13.586;2024-02-04T19:03:16;97737.69;;;8.01;99.87
43155;BME280;34212;51.018;13.586;2024-02-04T19:08:18;97741.84;;;8.04;100.00
43155;BME280;34212;51.018;13.586;2024-02-04T19:13:19;97751.47;;;8.05;99.94
43155;BME280;34212;51.018;13.586;2024-02-04T19:18:21;97755.94;;;8.04;99.99
43155;BME280;34212;51.018;13.586;2024-02-04T19:23:23;97739.84;;;8.06;100.00
43155;BME280;34212;51.018;13.586;2024-02-04T19:28:25;97731.53;;;8.09;100.00
43155;BME280;34212;51.018;13.586;2024-02-04T19:33:28;97739.16;;;8.12;100.00
43155;BME280;34212;51.018;13.586;2024-02-04T19:38:30;97728.56;;;8.20;100.00
43155;BME280;34212;51.018;13.586;2024-02-04T19:43:31;97733.53;;;8.23;100.00
43155;BME280;34212;51.018;13.586;2024-02-04T19:48:33;97696.00;;;8.26;100.00
43155;BME280;34212;51.018;13.586;2024-02-04T19:53:35;97685.00;;;8.38;100.00
43155;BME280;34212;51.018;13.586;2024-02-04T19:58:37;97687.66;;;8.38;99.52
43155;BME280;34212;51.018;13.586;2024-02-04T20:03:38;97672.59;;;8.38;99.74
43155;BME280;34212;51.018;13.586;2024-02-04T20:08:40;97688.38;;;8.40;99.59
43155;BME280;34212;51.018;13.586;2024-02-04T20:13:41;97688.69;;;8.37;99.72
43155;BME280;34212;51.018;13.586;2024-02-04T20:18:44;97688.88;;;8.35;99.63
43155;BME280;34212;51.018;13.586;2024-02-04T20:23:45;97685.53;;;8.33;99.18
43155;BME280;34212;51.018;13.586;2024-02-04T20:28:47;97684.22;;;8.29;99.65
43155;BME280;34212;51.018;13.586;2024-02-04T20:33:49;97683.38;;;8.28;99.46
43155;BME280;34212;51.018;13.586;2024-02-04T20:38:51;97690.69;;;8.26;99.21
43155;BME280;34212;51.018;13.586;2024-02-04T20:43:53;97681.72;;;8.27;99.93
43155;BME280;34212;51.018;13.586;2024-02-04T20:48:55;97681.72;;;8.27;99.82
43155;BME280;34212;51.018;13.586;2024-02-04T20:53:56;97663.78;;;8.29;100.00
43155;BME280;34212;51.018;13.586;2024-02-04T20:59:00;97645.81;;;8.31;99.34
43155;BME280;34212;51.018;13.586;2024-02-04T21:04:01;97645.81;;;8.31;100.00
43155;BME280;34212;51.018;13.586;2024-02-04T21:09:03;97645.50;;;8.34;99.75
43155;BME280;34212;51.018;13.586;2024-02-04T21:14:05;97638.19;;;8.37;99.11
43155;BME280;34212;51.018;13.586;2024-02-04T21:19:07;97628.06;;;8.40;99.51
43155;BME280;34212;51.018;13.586;2024-02-04T21:24:09;97610.28;;;8.49;99.94
43155;BME280;34212;51.018;13.586;2024-02-04T21:29:10;97605.94;;;8.56;99.20
43155;BME280;34212;51.018;13.586;2024-02-04T21:34:12;97585.66;;;8.63;100.00
43155;BME280;34212;51.018;13.586;2024-02-04T21:39:13;97572.78;;;8.75;100.00
43155;BME280;34212;51.018;13.586;2024-02-04T21:44:15;97555.09;;;8.90;100.00
43155;BME280;34212;51.018;13.586;2024-02-04T21:49:17;97534.06;;;9.04;100.00
43155;BME280;34212;51.018;13.586;2024-02-04T21:54:19;97536.50;;;9.13;100.00
43155;BME280;34212;51.018;13.586;2024-02-04T21:59:21;97540.09;;;9.20;100.00
43155;BME280;34212;51.018;13.586;2024-02-04T22:04:24;97518.47;;;9.23;100.00
43155;BME280;34212;51.018;13.586;2024-02-04T22:09:26;97533.06;;;9.28;100.00
43155;BME280;34212;51.018;13.586;2024-02-04T22:14:27;97508.94;;;9.29;100.00
43155;BME280;34212;51.018;13.586;2024-02-04T22:19:29;97493.44;;;9.33;100.00
43155;BME280;34212;51.018;13.586;2024-02-04T22:24:30;97492.41;;;9.34;100.00
43155;BME280;34212;51.018;13.586;2024-02-04T22:29:34;97485.75;;;9.38;100.00
43155;BME280;34212;51.018;13.586;2024-02-04T22:34:35;97475.72;;;9.40;100.00
43155;BME280;34212;51.018;13.586;2024-02-04T22:39:39;97466.75;;;9.41;100.00
43155;BME280;34212;51.018;13.586;2024-02-04T22:44:43;97465.75;;;9.42;100.00
43155;BME280;34212;51.018;13.586;2024-02-04T22:49:54;97476.38;;;9.42;100.00
43155;BME280;34212;51.018;13.586;2024-02-04T22:54:57;97466.22;;;9.45;100.00
43155;BME280;34212;51.018;13.586;2024-02-04T22:59:59;97473.38;;;9.45;100.00
43155;BME280;34212;51.018;13.586;2024-02-04T23:05:01;97482.63;;;9.49;100.00
43155;BME280;34212;51.018;13.586;2024-02-04T23:10:02;97473.00;;;9.48;100.00
43155;BME280;34212;51.018;13.586;2024-02-04T23:15:04;97462.34;;;9.48;100.00
43155;BME280;34212;51.018;13.586;2024-02-04T23:20:07;97457.03;;;9.48;100.00
43155;BME280;34212;51.018;13.586;2024-02-04T23:25:12;97462.34;;;9.48;100.00
43155;BME280;34212;51.018;13.586;2024-02-04T23:30:14;97457.84;;;9.48;100.00
43155;BME280;34212;51.018;13.586;2024-02-04T23:35:16;97448.03;;;9.49;100.00
43155;BME280;34212;51.018;13.586;2024-02-04T23:40:18;97455.00;;;9.50;100.00
43155;BME280;34212;51.018;13.586;2024-02-04T23:45:20;97480.63;;;9.51;100.00
43155;BME280;34212;51.018;13.586;2024-02-04T23:50:22;97465.66;;;9.50;100.00
43155;BME280;34212;51.018;13.586;2024-02-04T23:55:24;97441.69;;;9.50;100.00
